createdAt,value
2022-12-24T00:02:22.341Z,6.60
2022-12-24T00:04:48.844Z,6.83
2022-12-24T00:07:15.425Z,6.94
2022-12-24T00:09:42.185Z,6.65
2022-12-24T00:12:08.668Z,6.65
2022-12-24T00:14:35.224Z,6.83
2022-12-24T00:17:01.762Z,6.71
2022-12-24T00:19:28.201Z,6.83
2022-12-24T00:21:54.716Z,6.46
2022-12-24T00:24:21.226Z,6.76
2022-12-24T00:26:47.678Z,6.60
2022-12-24T00:29:14.171Z,6.87
2022-12-24T00:31:40.600Z,6.59
2022-12-24T00:34:08.850Z,6.82
2022-12-24T00:36:35.330Z,6.61
2022-12-24T00:39:02.054Z,6.82
2022-12-24T00:41:31.400Z,6.93
2022-12-24T00:44:05.776Z,6.68
2022-12-24T00:46:33.783Z,6.94
2022-12-24T00:49:00.890Z,6.94
2022-12-24T00:51:28.175Z,6.92
2022-12-24T00:53:55.044Z,6.76
2022-12-24T00:56:22.011Z,6.84
2022-12-24T00:58:49.005Z,6.83
2022-12-24T01:01:16.573Z,6.88
2022-12-24T01:03:43.297Z,6.79
2022-12-24T01:06:13.390Z,6.80
2022-12-24T01:08:40.540Z,6.61
2022-12-24T01:11:08.541Z,6.66
2022-12-24T01:13:36.091Z,6.81
2022-12-24T01:16:02.891Z,6.89
2022-12-24T01:18:29.439Z,6.52
2022-12-24T01:20:58.748Z,6.92
2022-12-24T01:23:25.622Z,6.67
2022-12-24T01:25:52.270Z,6.81
2022-12-24T01:28:19.438Z,6.76
2022-12-24T01:30:46.362Z,6.66
2022-12-24T01:33:13.621Z,6.78
2022-12-24T01:35:41.621Z,6.87
2022-12-24T01:38:08.191Z,6.69
2022-12-24T01:40:53.274Z,6.82
2022-12-24T01:43:25.539Z,6.89
2022-12-24T01:46:07.617Z,6.90
2022-12-24T01:48:43.215Z,6.87
2022-12-24T01:51:26.629Z,6.85
2022-12-24T01:53:58.568Z,6.46
2022-12-24T01:56:27.108Z,6.43
2022-12-24T01:58:57.879Z,6.78
2022-12-24T02:01:24.862Z,6.66
2022-12-24T02:03:52.140Z,6.70
2022-12-24T02:06:20.754Z,6.56
2022-12-24T02:08:47.606Z,6.72
2022-12-24T02:11:22.579Z,6.69
2022-12-24T02:13:53.660Z,6.61
2022-12-24T02:16:26.024Z,6.76
2022-12-24T02:18:58.804Z,6.61
2022-12-24T02:21:36.548Z,6.79
2022-12-24T02:24:16.705Z,6.77
2022-12-24T02:27:01.445Z,6.75
2022-12-24T02:29:52.260Z,6.62
2022-12-24T02:32:25.608Z,6.62
2022-12-24T02:34:58.803Z,6.65
2022-12-24T02:37:32.000Z,6.76
2022-12-24T02:40:29.613Z,6.61
2022-12-24T02:43:01.144Z,6.78
2022-12-24T02:45:31.127Z,6.69
2022-12-24T02:47:57.694Z,6.69
2022-12-24T02:50:24.675Z,6.63
2022-12-24T02:52:51.809Z,6.23
2022-12-24T02:55:29.968Z,6.40
2022-12-24T02:58:14.775Z,6.72
2022-12-24T03:00:58.462Z,6.68
2022-12-24T03:03:42.637Z,6.44
2022-12-24T03:06:29.441Z,6.72
2022-12-24T03:09:26.273Z,6.76
2022-12-24T03:12:01.482Z,6.69
2022-12-24T03:14:29.817Z,6.70
2022-12-24T03:16:58.473Z,6.43
2022-12-24T03:19:26.504Z,6.66
2022-12-24T03:21:57.042Z,6.71
2022-12-24T03:24:24.059Z,6.69
2022-12-24T03:26:52.411Z,6.64
2022-12-24T03:29:20.204Z,6.59
2022-12-24T03:31:50.493Z,6.69
2022-12-24T03:34:18.300Z,6.68
2022-12-24T03:39:26.799Z,6.60
2022-12-24T03:41:53.406Z,6.62
2022-12-24T03:44:20.054Z,6.21
2022-12-24T03:46:46.542Z,6.53
2022-12-24T03:49:13.024Z,6.65
2022-12-24T03:51:39.515Z,6.26
2022-12-24T03:54:06.002Z,6.72
2022-12-24T03:56:32.459Z,6.39
2022-12-24T03:58:58.934Z,6.72
2022-12-24T04:01:25.547Z,6.40
2022-12-24T04:03:52.172Z,6.66
2022-12-24T04:06:18.990Z,6.74
2022-12-24T04:08:45.583Z,6.67
2022-12-24T04:11:14.887Z,6.70
2022-12-24T04:13:41.554Z,6.38
2022-12-24T04:16:10.596Z,6.60
2022-12-24T04:18:38.200Z,6.62
2022-12-24T04:21:05.890Z,6.63
2022-12-24T04:23:33.928Z,6.57
2022-12-24T04:26:01.769Z,6.62
2022-12-24T04:28:32.693Z,6.60
2022-12-24T04:31:07.040Z,6.62
2022-12-24T04:33:33.765Z,6.62
2022-12-24T04:36:02.583Z,6.58
2022-12-24T04:38:29.927Z,6.57
2022-12-24T04:41:07.474Z,6.28
2022-12-24T04:43:34.679Z,6.58
2022-12-24T04:46:27.742Z,6.64
2022-12-24T04:48:55.346Z,6.54
2022-12-24T04:51:22.532Z,6.23
2022-12-24T04:53:49.779Z,6.68
2022-12-24T04:56:19.265Z,6.71
2022-12-24T04:58:46.870Z,6.65
2022-12-24T05:01:16.026Z,6.66
2022-12-24T05:03:42.717Z,6.64
2022-12-24T05:06:12.159Z,6.71
2022-12-24T05:08:39.242Z,6.71
2022-12-24T05:11:06.906Z,6.51
2022-12-24T05:13:42.273Z,6.66
2022-12-24T05:16:13.265Z,6.37
2022-12-24T05:18:40.290Z,6.35
2022-12-24T05:21:11.699Z,6.69
2022-12-24T05:23:57.231Z,5.77
2022-12-24T05:26:50.701Z,6.73
2022-12-24T05:29:17.286Z,6.63
2022-12-24T05:31:45.180Z,6.65
2022-12-24T05:34:17.149Z,6.50
2022-12-24T05:36:44.879Z,6.72
2022-12-24T05:39:17.001Z,6.73
2022-12-24T05:41:44.327Z,6.62
2022-12-24T05:44:10.781Z,6.65
2022-12-24T05:46:37.372Z,6.67
2022-12-24T05:49:03.925Z,6.40
2022-12-24T05:51:30.382Z,6.40
2022-12-24T05:53:56.859Z,6.61
2022-12-24T05:56:24.790Z,6.50
2022-12-24T05:58:53.484Z,6.34
2022-12-24T06:01:21.280Z,6.36
2022-12-24T06:03:49.936Z,6.69
2022-12-24T06:06:21.635Z,6.69
2022-12-24T06:08:49.398Z,6.55
2022-12-24T06:11:18.414Z,6.25
2022-12-24T06:13:44.968Z,6.45
2022-12-24T06:16:14.843Z,6.61
2022-12-24T06:18:41.823Z,6.32
2022-12-24T06:21:09.106Z,6.30
2022-12-24T06:23:38.023Z,6.62
2022-12-24T06:26:06.972Z,6.55
2022-12-24T06:28:36.848Z,6.54
2022-12-24T06:31:05.178Z,6.42
2022-12-24T06:33:33.128Z,6.61
2022-12-24T06:36:00.113Z,6.63
2022-12-24T06:38:27.139Z,6.52
2022-12-24T06:40:55.902Z,6.52
2022-12-24T06:43:22.545Z,6.21
2022-12-24T06:45:49.038Z,6.61
2022-12-24T06:48:16.295Z,6.46
2022-12-24T06:50:42.925Z,6.52
2022-12-24T06:53:10.484Z,6.36
2022-12-24T06:55:37.560Z,6.03
2022-12-24T06:58:04.258Z,6.33
2022-12-24T07:00:30.939Z,6.44
2022-12-24T07:02:57.554Z,6.45
2022-12-24T07:05:24.053Z,6.19
2022-12-24T07:07:50.769Z,6.42
2022-12-24T07:10:18.398Z,6.34
2022-12-24T07:12:44.959Z,6.49
2022-12-24T07:15:12.482Z,6.34
2022-12-24T07:17:39.290Z,6.55
2022-12-24T07:20:07.485Z,6.25
2022-12-24T07:22:34.046Z,6.54
2022-12-24T07:25:00.628Z,6.52
2022-12-24T07:27:27.137Z,6.17
2022-12-24T07:29:53.783Z,6.25
2022-12-24T07:32:20.737Z,6.21
2022-12-24T07:34:47.436Z,6.51
2022-12-24T07:37:14.155Z,6.52
2022-12-24T07:39:40.752Z,6.46
2022-12-24T07:42:08.218Z,6.53
2022-12-24T07:44:34.971Z,6.20
2022-12-24T07:47:01.609Z,6.32
2022-12-24T07:49:28.142Z,6.39
2022-12-24T07:51:55.364Z,6.40
2022-12-24T07:54:22.050Z,6.44
2022-12-24T07:56:48.570Z,6.28
2022-12-24T07:59:15.409Z,6.41
2022-12-24T08:01:42.358Z,6.45
2022-12-24T08:04:09.065Z,6.48
2022-12-24T08:06:35.568Z,6.53
2022-12-24T08:09:02.388Z,6.50
2022-12-24T08:11:28.936Z,6.53
2022-12-24T08:13:55.412Z,6.38
2022-12-24T08:16:22.147Z,6.60
2022-12-24T08:18:48.648Z,6.43
2022-12-24T08:21:15.162Z,6.58
2022-12-24T08:23:41.753Z,6.38
2022-12-24T08:26:10.594Z,6.67
2022-12-24T08:28:37.455Z,6.59
2022-12-24T08:31:04.132Z,6.50
2022-12-24T08:33:32.250Z,6.54
2022-12-24T08:36:01.644Z,6.44
2022-12-24T08:38:28.553Z,6.58
2022-12-24T08:40:55.571Z,6.20
2022-12-24T08:43:22.663Z,6.62
2022-12-24T08:45:50.201Z,6.36
2022-12-24T08:48:17.278Z,6.63
2022-12-24T08:50:44.318Z,6.59
2022-12-24T08:53:10.984Z,6.39
2022-12-24T08:55:37.888Z,6.68
2022-12-24T08:58:04.693Z,6.76
2022-12-24T09:00:31.310Z,6.72
2022-12-24T09:02:58.181Z,6.60
2022-12-24T09:08:11.008Z,3.50
2022-12-24T09:10:37.532Z,6.81
2022-12-24T09:13:04.049Z,6.32
2022-12-24T09:15:30.778Z,6.68
2022-12-24T09:17:57.529Z,6.66
2022-12-24T09:20:24.075Z,6.69
2022-12-24T09:22:50.602Z,6.72
2022-12-24T09:25:17.129Z,6.69
2022-12-24T09:27:43.570Z,6.86
2022-12-24T09:30:10.655Z,7.00
2022-12-24T09:32:37.193Z,6.98
2022-12-24T09:35:04.008Z,6.70
2022-12-24T09:37:30.651Z,7.15
2022-12-24T09:39:57.126Z,7.10
2022-12-24T09:42:51.243Z,7.11
2022-12-24T09:45:33.010Z,7.18
2022-12-24T09:48:05.578Z,6.92
2022-12-24T09:51:30.760Z,7.27
2022-12-24T09:54:07.753Z,7.19
2022-12-24T09:56:43.787Z,7.22
2022-12-24T09:59:17.410Z,7.04
2022-12-24T10:01:44.063Z,7.28
2022-12-24T10:04:15.696Z,7.19
2022-12-24T10:07:02.280Z,7.27
2022-12-24T10:09:55.109Z,7.38
2022-12-24T10:12:49.537Z,7.15
2022-12-24T10:15:28.333Z,7.15
2022-12-24T10:18:12.795Z,6.99
2022-12-24T10:20:55.113Z,7.28
2022-12-24T10:23:33.596Z,7.07
2022-12-24T10:26:03.465Z,7.32
2022-12-24T10:28:47.000Z,7.25
2022-12-24T10:31:14.091Z,7.14
2022-12-24T10:33:48.326Z,7.52
2022-12-24T10:36:19.226Z,7.55
2022-12-24T10:38:46.738Z,7.16
2022-12-24T10:41:15.170Z,7.68
2022-12-24T10:43:44.062Z,7.40
2022-12-24T10:46:28.157Z,7.73
2022-12-24T10:49:03.818Z,7.72
2022-12-24T10:52:21.824Z,7.77
2022-12-24T10:55:16.086Z,7.75
2022-12-24T10:57:44.202Z,7.83
2022-12-24T11:00:22.416Z,7.85
2022-12-24T11:02:50.632Z,7.82
2022-12-24T11:05:35.010Z,7.85
2022-12-24T11:08:14.314Z,7.81
2022-12-24T11:10:44.845Z,7.47
2022-12-24T11:13:39.264Z,7.79
2022-12-24T11:16:20.305Z,7.84
2022-12-24T11:18:52.700Z,7.87
2022-12-24T11:21:31.387Z,7.74
2022-12-24T11:24:04.281Z,7.56
2022-12-24T11:26:31.428Z,7.90
2022-12-24T11:29:16.717Z,8.01
2022-12-24T11:31:44.885Z,7.94
2022-12-24T11:34:32.976Z,8.20
2022-12-24T11:37:24.513Z,8.22
2022-12-24T11:39:54.153Z,8.21
2022-12-24T11:42:37.090Z,7.98
2022-12-24T11:45:19.755Z,7.95
2022-12-24T11:47:46.356Z,8.13
2022-12-24T11:50:31.867Z,7.91
2022-12-24T11:53:04.317Z,7.95
2022-12-24T11:55:36.563Z,7.95
2022-12-24T11:58:11.424Z,7.78
2022-12-24T12:00:40.227Z,7.82
2022-12-24T12:03:23.877Z,8.04
2022-12-24T12:05:54.120Z,8.13
2022-12-24T12:08:22.286Z,8.06
2022-12-24T12:10:52.455Z,7.94
2022-12-24T12:13:24.294Z,8.11
2022-12-24T12:16:02.941Z,8.21
2022-12-24T12:18:36.845Z,8.00
2022-12-24T12:21:08.704Z,7.87
2022-12-24T12:23:46.818Z,7.94
2022-12-24T12:26:18.273Z,8.43
2022-12-24T12:28:49.497Z,8.35
2022-12-24T12:31:38.840Z,8.49
2022-12-24T12:34:17.495Z,8.65
2022-12-24T12:37:14.255Z,8.33
2022-12-24T12:39:41.487Z,8.92
2022-12-24T12:42:22.127Z,8.86
2022-12-24T12:45:02.668Z,9.00
2022-12-24T12:47:56.538Z,8.83
2022-12-24T12:50:54.061Z,8.89
2022-12-24T12:53:31.419Z,9.31
2022-12-24T12:56:17.419Z,9.41
2022-12-24T12:58:49.654Z,9.37
2022-12-24T13:01:27.258Z,9.28
2022-12-24T13:04:23.353Z,9.11
2022-12-24T13:07:23.398Z,8.51
2022-12-24T13:10:08.548Z,8.80
2022-12-24T13:12:48.972Z,8.95
2022-12-24T13:15:37.633Z,9.20
2022-12-24T13:18:32.773Z,9.30
2022-12-24T13:20:59.589Z,9.69
2022-12-24T13:23:27.883Z,9.68
2022-12-24T13:25:56.988Z,9.91
2022-12-24T13:28:23.420Z,10.01
2022-12-24T13:31:14.351Z,9.43
2022-12-24T13:33:40.869Z,9.21
2022-12-24T13:36:10.567Z,9.24
2022-12-24T13:38:40.670Z,9.24
2022-12-24T13:41:38.354Z,9.13
2022-12-24T13:44:13.223Z,9.07
2022-12-24T13:47:01.159Z,8.88
2022-12-24T13:49:44.092Z,8.96
2022-12-24T13:52:10.776Z,8.99
2022-12-24T13:54:45.858Z,9.02
2022-12-24T13:57:48.435Z,8.84
2022-12-24T14:00:20.761Z,9.07
2022-12-24T14:02:58.722Z,9.02
2022-12-24T14:05:34.454Z,9.02
2022-12-24T14:08:04.528Z,9.09
2022-12-24T14:10:43.787Z,8.94
2022-12-24T14:13:39.490Z,9.28
2022-12-24T14:16:17.942Z,9.27
2022-12-24T14:18:50.148Z,9.16
2022-12-24T14:21:22.385Z,9.24
2022-12-24T14:23:58.348Z,9.26
2022-12-24T14:26:30.000Z,9.22
2022-12-24T14:29:00.948Z,9.06
2022-12-24T14:31:27.724Z,8.97
2022-12-24T14:34:07.105Z,9.06
2022-12-24T14:36:34.586Z,8.99
2022-12-24T14:39:01.864Z,8.98
2022-12-24T14:41:42.891Z,8.74
2022-12-24T14:44:35.942Z,8.95
2022-12-24T14:47:37.765Z,8.87
2022-12-24T14:50:25.975Z,8.84
2022-12-24T14:53:11.967Z,8.80
2022-12-24T14:55:45.614Z,8.79
2022-12-24T14:58:25.570Z,8.40
2022-12-24T15:00:54.513Z,8.77
2022-12-24T15:03:24.532Z,8.45
2022-12-24T15:05:57.695Z,8.64
2022-12-24T15:08:29.707Z,8.31
2022-12-24T15:11:01.539Z,8.84
2022-12-24T15:13:39.032Z,8.81
2022-12-24T15:16:09.230Z,8.69
2022-12-24T15:18:39.820Z,8.38
2022-12-24T15:21:14.502Z,8.56
2022-12-24T15:23:48.008Z,8.61
2022-12-24T15:26:35.022Z,8.64
2022-12-24T15:29:03.885Z,8.69
2022-12-24T15:31:31.375Z,8.69
2022-12-24T15:34:01.849Z,8.66
2022-12-24T15:36:37.145Z,8.75
2022-12-24T15:39:07.798Z,8.76
2022-12-24T15:42:01.356Z,8.84
2022-12-24T15:44:33.217Z,8.87
2022-12-24T15:47:01.251Z,8.82
2022-12-24T15:49:30.157Z,8.79
2022-12-24T15:52:09.898Z,8.75
2022-12-24T15:54:36.941Z,8.69
2022-12-24T15:57:27.656Z,8.66
2022-12-24T15:59:59.666Z,8.67
2022-12-24T16:02:38.414Z,8.63
2022-12-24T16:05:30.316Z,8.75
2022-12-24T16:08:10.037Z,8.74
2022-12-24T16:10:47.423Z,8.76
2022-12-24T16:13:18.895Z,8.73
2022-12-24T16:15:50.627Z,8.63
2022-12-24T16:18:21.217Z,8.27
2022-12-24T16:20:50.265Z,8.59
2022-12-24T16:23:19.740Z,8.39
2022-12-24T16:25:46.449Z,8.66
2022-12-24T16:28:20.219Z,8.81
2022-12-24T16:30:48.868Z,8.92
2022-12-24T16:33:18.668Z,8.83
2022-12-24T16:35:46.177Z,8.96
2022-12-24T16:38:13.798Z,8.91
2022-12-24T16:40:41.749Z,8.99
2022-12-24T16:43:28.498Z,9.09
2022-12-24T16:46:01.220Z,8.99
2022-12-24T16:48:27.918Z,9.02
2022-12-24T16:50:54.675Z,8.87
2022-12-24T16:53:22.727Z,8.85
2022-12-24T16:55:51.494Z,8.69
2022-12-24T16:58:18.796Z,8.67
2022-12-24T17:00:45.734Z,8.96
2022-12-24T17:03:12.692Z,9.00
2022-12-24T17:05:43.972Z,8.85
2022-12-24T17:08:11.090Z,8.51
2022-12-24T17:10:37.796Z,9.06
2022-12-24T17:13:04.394Z,9.03
2022-12-24T17:15:31.406Z,9.13
2022-12-24T17:17:58.152Z,9.15
2022-12-24T17:20:24.923Z,9.02
2022-12-24T17:22:52.124Z,9.12
2022-12-24T17:25:18.753Z,9.10
2022-12-24T17:27:45.625Z,9.12
2022-12-24T17:30:12.609Z,9.07
2022-12-24T17:32:39.708Z,9.22
2022-12-24T17:35:07.841Z,9.00
2022-12-24T17:37:34.404Z,8.76
2022-12-24T17:40:01.083Z,9.18
2022-12-24T17:42:27.607Z,9.11
2022-12-24T17:44:54.103Z,8.84
2022-12-24T17:47:20.594Z,8.70
2022-12-24T17:49:47.089Z,9.12
2022-12-24T17:52:13.679Z,8.81
2022-12-24T17:54:40.130Z,9.20
2022-12-24T17:57:06.621Z,9.12
2022-12-24T17:59:33.233Z,9.25
2022-12-24T18:01:59.855Z,9.07
2022-12-24T18:04:26.500Z,8.96
2022-12-24T18:06:59.645Z,8.87
2022-12-24T18:09:29.505Z,9.11
2022-12-24T18:11:56.111Z,9.04
2022-12-24T18:14:22.627Z,9.16
2022-12-24T18:16:49.962Z,9.32
2022-12-24T18:19:16.710Z,9.21
2022-12-24T18:21:43.496Z,9.22
2022-12-24T18:24:12.107Z,9.24
2022-12-24T18:26:39.181Z,8.55
2022-12-24T18:29:06.173Z,8.80
2022-12-24T18:31:34.062Z,8.80
2022-12-24T18:34:02.561Z,9.09
2022-12-24T18:36:29.876Z,8.95
2022-12-24T18:38:56.589Z,8.86
2022-12-24T18:41:25.977Z,9.07
2022-12-24T18:43:53.305Z,9.02
2022-12-24T18:46:23.756Z,9.15
2022-12-24T18:48:51.044Z,9.18
2022-12-24T18:51:19.766Z,9.13
2022-12-24T18:53:46.338Z,9.05
2022-12-24T18:56:21.844Z,9.02
2022-12-24T18:58:49.254Z,8.93
2022-12-24T19:01:18.804Z,9.04
2022-12-24T19:03:45.961Z,9.04
2022-12-24T19:06:12.778Z,8.98
2022-12-24T19:08:57.122Z,8.92
2022-12-24T19:11:25.821Z,9.06
2022-12-24T19:13:53.148Z,9.09
2022-12-24T19:16:21.071Z,9.10
2022-12-24T19:18:47.845Z,9.02
2022-12-24T19:21:16.241Z,8.69
2022-12-24T19:23:43.483Z,8.84
2022-12-24T19:26:11.888Z,8.79
2022-12-24T19:28:39.737Z,8.80
2022-12-24T19:31:09.268Z,8.67
2022-12-24T19:33:43.192Z,8.43
2022-12-24T19:36:12.932Z,8.53
2022-12-24T19:38:39.581Z,8.36
2022-12-24T19:41:14.565Z,7.72
2022-12-24T19:43:43.559Z,8.48
2022-12-24T19:46:15.544Z,8.44
2022-12-24T19:48:43.130Z,8.26
2022-12-24T19:51:12.303Z,8.08
2022-12-24T19:53:39.698Z,8.32
2022-12-24T19:56:08.760Z,8.22
2022-12-24T19:58:36.056Z,8.26
2022-12-24T20:01:15.262Z,8.38
2022-12-24T20:03:43.337Z,8.19
2022-12-24T20:06:13.195Z,8.41
2022-12-24T20:08:40.058Z,8.07
2022-12-24T20:11:09.385Z,8.41
2022-12-24T20:13:37.335Z,8.53
2022-12-24T20:16:09.761Z,8.29
2022-12-24T20:18:36.775Z,8.47
2022-12-24T20:21:05.315Z,8.62
2022-12-24T20:23:31.971Z,8.54
2022-12-24T20:26:01.722Z,8.62
2022-12-24T20:28:30.194Z,8.19
2022-12-24T20:30:57.392Z,8.17
2022-12-24T20:33:24.595Z,8.21
2022-12-24T20:35:51.454Z,8.36
2022-12-24T20:38:18.605Z,8.17
2022-12-24T20:40:46.224Z,8.30
2022-12-24T20:43:13.257Z,8.40
2022-12-24T20:45:40.000Z,8.34
2022-12-24T20:48:06.907Z,8.38
2022-12-24T20:50:33.449Z,8.13
2022-12-24T20:53:00.341Z,8.08
2022-12-24T20:55:26.796Z,7.62
2022-12-24T20:57:53.278Z,7.88
2022-12-24T21:00:20.395Z,8.14
2022-12-24T21:02:47.188Z,8.03
2022-12-24T21:05:14.215Z,7.71
2022-12-24T21:07:42.966Z,7.98
2022-12-24T21:10:11.496Z,7.90
2022-12-24T21:12:56.883Z,7.67
2022-12-24T21:15:26.905Z,7.34
2022-12-24T21:17:54.206Z,7.80
2022-12-24T21:20:21.924Z,7.88
2022-12-24T21:22:48.514Z,7.57
2022-12-24T21:25:14.981Z,7.89
2022-12-24T21:27:41.439Z,7.92
2022-12-24T21:30:09.738Z,7.70
2022-12-24T21:32:36.458Z,7.86
2022-12-24T21:35:04.292Z,7.73
2022-12-24T21:37:31.831Z,7.78
2022-12-24T21:39:58.352Z,7.71
2022-12-24T21:42:26.060Z,7.45
2022-12-24T21:44:52.615Z,7.28
2022-12-24T21:47:19.367Z,7.52
2022-12-24T21:50:04.529Z,7.56
2022-12-24T21:52:31.287Z,7.59
2022-12-24T21:54:57.785Z,7.14
2022-12-24T21:57:42.965Z,7.77
2022-12-24T22:00:22.540Z,7.64
2022-12-24T22:02:51.253Z,7.62
2022-12-24T22:05:18.399Z,7.59
2022-12-24T22:08:04.588Z,7.59
2022-12-24T22:10:49.990Z,7.57
2022-12-24T22:13:20.200Z,7.42
2022-12-24T22:15:49.121Z,7.35
2022-12-24T22:18:17.714Z,7.36
2022-12-24T22:20:45.199Z,7.33
2022-12-24T22:23:13.451Z,7.21
2022-12-24T22:25:40.793Z,6.84
2022-12-24T22:28:07.888Z,6.90
2022-12-24T22:30:39.200Z,7.12
2022-12-24T22:33:06.707Z,7.37
2022-12-24T22:35:33.963Z,7.33
2022-12-24T22:38:00.788Z,7.41
2022-12-24T22:40:28.050Z,7.60
2022-12-24T22:42:54.800Z,7.57
2022-12-24T22:45:22.695Z,7.42
2022-12-24T22:47:49.662Z,6.86
2022-12-24T22:50:16.906Z,7.04
2022-12-24T22:52:43.757Z,7.04
2022-12-24T22:55:10.627Z,7.47
2022-12-24T22:57:39.930Z,7.43
2022-12-24T23:00:12.136Z,7.08
2022-12-24T23:02:38.670Z,7.68
2022-12-24T23:05:05.489Z,7.56
2022-12-24T23:07:32.383Z,7.75
2022-12-24T23:09:59.804Z,7.67
2022-12-24T23:12:46.719Z,7.76
2022-12-24T23:15:13.193Z,7.47
2022-12-24T23:17:40.050Z,7.82
2022-12-24T23:20:07.285Z,7.94
2022-12-24T23:22:34.330Z,7.89
2022-12-24T23:25:00.904Z,7.95
2022-12-24T23:27:27.692Z,7.22
2022-12-24T23:30:01.014Z,7.39
2022-12-24T23:32:37.997Z,7.60
2022-12-24T23:35:05.644Z,7.32
2022-12-24T23:37:35.397Z,7.73
2022-12-24T23:40:07.198Z,7.74
2022-12-24T23:42:33.918Z,7.25
2022-12-24T23:45:04.104Z,7.14
2022-12-24T23:47:30.832Z,6.74
2022-12-24T23:50:00.092Z,7.34
2022-12-24T23:52:42.213Z,6.96
2022-12-24T23:55:08.902Z,7.10
2022-12-24T23:57:35.407Z,6.96
